»·PEaware :: N80853 KLGB-KSBA

N80853 :: KLGB-KSBA

FLIGHT INFORMATION

Flight Status: Arrived
Operator: Privately registered:
United States
More flights under this callsign
Pilot: Philip S. (16957)
Aircraft: PIPER PA-46-310/350P MALIBU MIRAGE
(PA46)
More flights by this aircraft type
Origin: KLGB Long Beach
United States
Destination: KSBA Santa Barbara Mun
United States
More flights between these airports :: More routes between these airports
Route: +POPPR V23 LAX V299 VTU VTU282 KWANG
File this flight plan on PilotEdge
Remarks: / G
Altitude:
(Current/Filed)
6,000ft
Speed:
(Current/Filed)
140kts
Departed: 02-Feb-19 04:28 PM
Arrived: 02-Feb-19 05:21 PM
Distance/Time
Traveled:
91nm/0:53
Distance/Time
To Go:
Arrived

Flight Plot

Page will automatically refresh every two minutes.

Flight plan parsing failed; only flown route is shown


Map Options




Map Legend


Flown Route
Filed Route
Departure Airport
Arrival Airport
Navaid (VOR, NDB)
Fix

Horizontal Profiles

Position Reports

Time Latitude Longitude Heading Altitude Ground
Speed
02-Feb-19 16:04 33.812960 -118.157591 38 64ft 0kts
02-Feb-19 16:05 33.812960 -118.157591 38 64ft 0kts
02-Feb-19 16:06 33.812960 -118.157591 38 64ft 0kts
02-Feb-19 16:07 33.812960 -118.157591 38 64ft 0kts
02-Feb-19 16:08 33.812960 -118.157591 38 64ft 0kts
02-Feb-19 16:09 33.812960 -118.157591 38 64ft 0kts
02-Feb-19 16:10 33.812960 -118.157591 38 64ft 0kts
02-Feb-19 16:11 33.812960 -118.157591 38 64ft 0kts
02-Feb-19 16:12 33.812960 -118.157591 38 64ft 0kts
02-Feb-19 16:13 33.813083 -118.155834 91 64ft 14kts
02-Feb-19 16:14 33.813093 -118.152336 89 64ft 22kts
02-Feb-19 16:15 33.812675 -118.147960 263 64ft 1kts
02-Feb-19 16:15 33.812674 -118.147962 263 64ft 0kts
02-Feb-19 16:16 33.812674 -118.147962 263 64ft 0kts
02-Feb-19 16:18 33.812674 -118.147962 263 64ft 0kts
02-Feb-19 16:19 33.812674 -118.147962 263 64ft 0kts
02-Feb-19 16:19 33.812674 -118.147962 263 64ft 0kts
02-Feb-19 16:20 33.812674 -118.147962 263 64ft 0kts
02-Feb-19 16:21 33.812674 -118.147962 263 64ft 0kts
02-Feb-19 16:23 33.812674 -118.147962 263 64ft 0kts
02-Feb-19 16:23 33.812674 -118.147962 263 64ft 0kts
02-Feb-19 16:24 33.813296 -118.147863 16 64ft 0kts
02-Feb-19 16:25 33.813296 -118.147863 16 64ft 0kts
02-Feb-19 16:26 33.813832 -118.148087 263 64ft 0kts
02-Feb-19 16:27 33.814362 -118.160312 276 288ft 76kts
02-Feb-19 16:28 33.815064 -118.177001 264 623ft 110kts
02-Feb-19 16:29 33.808809 -118.189681 213 1088ft 118kts
02-Feb-19 16:30 33.789005 -118.200273 208 2072ft 113kts
02-Feb-19 16:31 33.768499 -118.213827 216 2868ft 124kts
02-Feb-19 16:32 33.767791 -118.236302 331 3566ft 129kts
02-Feb-19 16:33 33.787715 -118.241388 341 4211ft 126kts
02-Feb-19 16:34 33.806355 -118.245652 356 4762ft 127kts
02-Feb-19 16:35 33.823969 -118.252456 334 5318ft 125kts
02-Feb-19 16:36 33.840773 -118.263016 313 5788ft 131kts
02-Feb-19 16:37 33.846967 -118.290264 278 6018ft 148kts
02-Feb-19 16:38 33.853648 -118.326459 284 5797ft 176kts
02-Feb-19 16:39 33.864794 -118.365640 303 5883ft 178kts
02-Feb-19 16:40 33.887997 -118.390167 326 5928ft 180kts
02-Feb-19 16:41 33.906251 -118.404534 326 5974ft 178kts
02-Feb-19 16:42 33.932191 -118.431804 306 6034ft 172kts
02-Feb-19 16:43 33.946165 -118.474150 282 5977ft 177kts
02-Feb-19 16:44 33.962514 -118.518853 293 5951ft 177kts
02-Feb-19 16:45 33.979973 -118.562982 287 5977ft 174kts
02-Feb-19 16:46 33.995151 -118.609830 295 6045ft 170kts
02-Feb-19 16:47 33.995336 -118.610282 294 6046ft 170kts
02-Feb-19 16:48 34.006491 -118.643355 288 5952ft 175kts
02-Feb-19 16:49 34.022129 -118.689197 286 5891ft 178kts
02-Feb-19 16:50 34.039940 -118.735512 298 5909ft 175kts
02-Feb-19 16:51 34.057004 -118.781452 295 5993ft 171kts
02-Feb-19 16:52 34.073556 -118.827206 286 5895ft 177kts
02-Feb-19 16:53 34.073486 -118.879650 272 5789ft 177kts
02-Feb-19 16:54 34.078326 -118.895306 291 6077ft 159kts
02-Feb-19 16:55 34.088281 -118.945791 282 6003ft 170kts
02-Feb-19 16:56 34.099629 -118.995170 283 6010ft 171kts
02-Feb-19 16:57 34.114190 -119.041961 283 5949ft 174kts
02-Feb-19 16:58 34.131936 -119.085520 331 6092ft 166kts
02-Feb-19 16:59 34.162311 -119.110607 285 5939ft 180kts
02-Feb-19 17:00 34.163567 -119.128957 269 5998ft 174kts
02-Feb-19 17:01 34.170530 -119.177550 281 6078ft 169kts
02-Feb-19 17:02 34.186178 -119.223644 299 6018ft 169kts
02-Feb-19 17:03 34.206790 -119.267683 296 6026ft 164kts
02-Feb-19 17:04 34.224601 -119.309344 297 6014ft 165kts
02-Feb-19 17:05 34.228212 -119.317005 299 5934ft 170kts
02-Feb-19 17:06 34.247260 -119.362716 295 5859ft 174kts
02-Feb-19 17:07 34.270675 -119.407454 297 5888ft 164kts
02-Feb-19 17:08 34.289799 -119.453798 299 5945ft 160kts
02-Feb-19 17:09 34.307134 -119.499422 292 5984ft 159kts
02-Feb-19 17:10 34.322491 -119.542896 290 5104ft 171kts
02-Feb-19 17:11 34.336453 -119.592582 289 3101ft 164kts
02-Feb-19 17:12 34.348307 -119.619849 303 1937ft 125kts
02-Feb-19 17:13 34.361627 -119.651684 293 1925ft 123kts
02-Feb-19 17:14 34.376677 -119.689584 293 2046ft 138kts
02-Feb-19 17:15 34.388470 -119.723016 288 1773ft 118kts
02-Feb-19 17:16 34.401490 -119.757589 294 868ft 115kts
02-Feb-19 17:17 34.415282 -119.789842 295 1006ft 113kts
02-Feb-19 17:18 34.425955 -119.814202 293 466ft 78kts
02-Feb-19 17:19 34.427617 -119.836751 266 17ft 55kts
02-Feb-19 17:20 34.426742 -119.838479 169 17ft 0kts

Navigation Log

Ident Type
Flight plan parsing failed, navigation log unavailable